Time,TemperatureF,DewpointF,PressureIn,WindDirection,WindDirectionDegrees,WindSpeedMPH,WindSpeedGustMPH,Humidity,HourlyPrecipIn,Conditions,Clouds,dailyrainin,SoftwareType,DateUTC
2013-03-02 00:06:00,35.5,26.0,29.78,NW,314,1.0,4.0,68,0.00,,,0.00,weatherlink.com 1.10,2013-03-02 05:06:00,
2013-03-02 00:21:00,35.3,26.0,29.78,North,4,6.0,6.0,69,0.00,,,0.00,weatherlink.com 1.10,2013-03-02 05:21:00,
2013-03-02 00:36:00,35.1,26.0,29.79,NNE,12,0.0,5.0,70,0.00,,,0.00,weatherlink.com 1.10,2013-03-02 05:36:00,
2013-03-02 00:51:00,34.7,25.0,29.78,NNE,26,1.0,8.0,69,0.00,,,0.00,weatherlink.com 1.10,2013-03-02 05:51:00,
2013-03-02 01:07:00,34.5,26.0,29.78,North,6,0.0,8.0,70,0.00,,,0.00,weatherlink.com 1.10,2013-03-02 06:07:00,
2013-03-02 01:22:00,34.3,25.0,29.78,NE,41,4.0,8.0,69,0.00,,,0.00,weatherlink.com 1.10,2013-03-02 06:22:00,
2013-03-02 01:37:00,34.0,25.0,29.78,North,9,4.0,5.0,69,0.00,,,0.00,weatherlink.com 1.10,2013-03-02 06:37:00,
2013-03-02 01:52:00,33.9,25.0,29.78,North,360,1.0,3.0,69,0.00,,,0.00,weatherlink.com 1.10,2013-03-02 06:52:00,
2013-03-02 02:07:00,33.9,25.0,29.78,NNW,328,1.0,5.0,69,0.00,,,0.00,weatherlink.com 1.10,2013-03-02 07:07:00,
2013-03-02 02:22:00,33.7,25.0,29.78,WNW,288,0.0,4.0,69,0.00,,,0.00,weatherlink.com 1.10,2013-03-02 07:22:00,
2013-03-02 02:37:00,33.6,25.0,29.78,SSE,155,0.0,4.0,70,0.00,,,0.00,weatherlink.com 1.10,2013-03-02 07:37:00,
2013-03-02 02:52:00,33.4,25.0,29.79,NNE,22,2.0,11.0,70,0.00,,,0.00,weatherlink.com 1.10,2013-03-02 07:52:00,
2013-03-02 03:07:00,33.3,24.0,29.79,NNE,12,1.0,5.0,70,0.00,,,0.00,weatherlink.com 1.10,2013-03-02 08:07:00,
2013-03-02 03:22:00,33.1,25.0,29.78,NE,39,2.0,4.0,71,0.00,,,0.00,weatherlink.com 1.10,2013-03-02 08:22:00,
2013-03-02 03:37:00,32.9,24.0,29.79,NNE,23,0.0,6.0,71,0.00,,,0.00,weatherlink.com 1.10,2013-03-02 08:37:00,
2013-03-02 03:52:00,32.9,24.0,29.79,West,272,1.0,4.0,71,0.00,,,0.00,weatherlink.com 1.10,2013-03-02 08:52:00,
2013-03-02 04:07:00,32.8,24.0,29.79,NNW,334,1.0,5.0,71,0.00,,,0.00,weatherlink.com 1.10,2013-03-02 09:07:00,
2013-03-02 04:22:00,32.7,24.0,29.79,North,7,0.0,4.0,71,0.00,,,0.00,weatherlink.com 1.10,2013-03-02 09:22:00,
2013-03-02 04:37:00,32.7,24.0,29.79,NW,311,2.0,4.0,71,0.00,,,0.00,weatherlink.com 1.10,2013-03-02 09:37:00,
2013-03-02 04:52:00,32.7,24.0,29.78,NNE,32,2.0,4.0,70,0.00,,,0.00,weatherlink.com 1.10,2013-03-02 09:52:00,
2013-03-02 05:07:00,32.6,24.0,29.78,NW,311,0.0,4.0,70,0.00,,,0.00,weatherlink.com 1.10,2013-03-02 10:07:00,
2013-03-02 05:22:00,32.3,24.0,29.78,ENE,64,1.0,4.0,70,0.00,,,0.00,weatherlink.com 1.10,2013-03-02 10:22:00,
2013-03-02 05:37:00,31.6,23.0,29.78,SW,225,0.0,1.0,71,0.00,,,0.00,weatherlink.com 1.10,2013-03-02 10:37:00,
2013-03-02 05:52:00,30.9,23.0,29.79,SSW,201,0.0,0.0,73,0.00,,,0.00,weatherlink.com 1.10,2013-03-02 10:52:00,
2013-03-02 06:07:00,30.6,23.0,29.79,North,351,1.0,3.0,74,0.00,,,0.00,weatherlink.com 1.10,2013-03-02 11:07:00,
2013-03-02 06:22:00,31.0,23.0,29.78,WNW,288,0.0,3.0,72,0.00,,,0.00,weatherlink.com 1.10,2013-03-02 11:22:00,
2013-03-02 06:37:00,31.2,23.0,29.79,West,259,1.0,4.0,71,0.00,,,0.00,weatherlink.com 1.10,2013-03-02 11:37:00,
2013-03-02 06:52:00,31.3,23.0,29.79,ENE,75,2.0,3.0,71,0.00,,,0.00,weatherlink.com 1.10,2013-03-02 11:52:00,
2013-03-02 07:07:00,31.4,23.0,29.79,North,6,4.0,4.0,71,0.00,,,0.00,weatherlink.com 1.10,2013-03-02 12:07:00,
2013-03-02 07:22:00,31.7,23.0,29.79,North,5,0.0,6.0,70,0.00,,,0.00,weatherlink.com 1.10,2013-03-02 12:22:00,
2013-03-02 07:37:00,32.0,23.0,29.79,West,276,1.0,5.0,70,0.00,,,0.00,weatherlink.com 1.10,2013-03-02 12:37:00,
2013-03-02 07:52:00,32.3,24.0,29.79,NE,43,0.0,7.0,70,0.00,,,0.00,weatherlink.com 1.10,2013-03-02 12:52:00,
2013-03-02 08:07:00,32.6,23.0,29.79,NNE,18,1.0,6.0,69,0.00,,,0.00,weatherlink.com 1.10,2013-03-02 13:07:00,
2013-03-02 08:22:00,33.0,23.0,29.80,WNW,292,0.0,3.0,68,0.00,,,0.00,weatherlink.com 1.10,2013-03-02 13:22:00,
2013-03-02 08:37:00,33.5,23.0,29.79,NE,44,5.0,8.0,66,0.00,,,0.00,weatherlink.com 1.10,2013-03-02 13:37:00,
2013-03-02 08:52:00,34.4,24.0,29.79,NNE,18,4.0,8.0,65,0.00,,,0.00,weatherlink.com 1.10,2013-03-02 13:52:00,
2013-03-02 09:07:00,34.9,24.0,29.78,NNE,29,4.0,9.0,64,0.00,,,0.00,weatherlink.com 1.10,2013-03-02 14:07:00,
2013-03-02 09:22:00,35.3,23.0,29.78,North,6,3.0,13.0,62,0.00,,,0.00,weatherlink.com 1.10,2013-03-02 14:22:00,
2013-03-02 09:37:00,35.2,24.0,29.78,NNE,15,6.0,9.0,63,0.00,,,0.00,weatherlink.com 1.10,2013-03-02 14:37:00,
2013-03-02 09:52:00,35.3,24.0,29.77,NNW,340,0.0,10.0,63,0.00,,,0.00,weatherlink.com 1.10,2013-03-02 14:52:00,
2013-03-02 10:07:00,35.6,24.0,29.77,North,360,4.0,10.0,62,0.00,,,0.00,weatherlink.com 1.10,2013-03-02 15:07:00,
2013-03-02 10:23:00,36.1,24.0,29.77,NNE,29,6.0,10.0,61,0.00,,,0.00,weatherlink.com 1.10,2013-03-02 15:23:00,
2013-03-02 10:38:00,36.3,24.0,29.77,ESE,113,4.0,7.0,62,0.00,,,0.00,weatherlink.com 1.10,2013-03-02 15:38:00,
2013-03-02 10:53:00,37.1,24.0,29.77,NE,47,2.0,10.0,60,0.00,,,0.00,weatherlink.com 1.10,2013-03-02 15:53:00,
2013-03-02 11:08:00,37.5,25.0,29.77,NNE,19,1.0,5.0,60,0.00,,,0.00,weatherlink.com 1.10,2013-03-02 16:08:00,
2013-03-02 11:23:00,38.4,25.0,29.76,North,11,5.0,8.0,58,0.00,,,0.00,weatherlink.com 1.10,2013-03-02 16:23:00,
2013-03-02 11:38:00,37.8,24.0,29.76,NE,43,0.0,6.0,59,0.00,,,0.00,weatherlink.com 1.10,2013-03-02 16:38:00,
2013-03-02 11:53:00,38.6,25.0,29.76,North,356,3.0,7.0,58,0.00,,,0.00,weatherlink.com 1.10,2013-03-02 16:53:00,
2013-03-02 12:08:00,39.4,25.0,29.75,WNW,300,3.0,6.0,57,0.00,,,0.00,weatherlink.com 1.10,2013-03-02 17:08:00,
2013-03-02 12:23:00,39.4,25.0,29.75,NNW,329,3.0,7.0,57,0.00,,,0.00,weatherlink.com 1.10,2013-03-02 17:23:00,
2013-03-02 12:38:00,39.4,25.0,29.74,West,269,0.0,7.0,57,0.00,,,0.00,weatherlink.com 1.10,2013-03-02 17:38:00,
2013-03-02 12:53:00,39.0,25.0,29.74,NW,314,1.0,5.0,57,0.00,,,0.00,weatherlink.com 1.10,2013-03-02 17:53:00,
2013-03-02 13:08:00,38.4,25.0,29.74,West,266,5.0,7.0,58,0.00,,,0.00,weatherlink.com 1.10,2013-03-02 18:08:00,
2013-03-02 13:23:00,38.3,25.0,29.74,NNE,13,4.0,8.0,60,0.00,,,0.00,weatherlink.com 1.10,2013-03-02 18:23:00,
2013-03-02 13:38:00,38.0,25.0,29.73,NNE,28,1.0,6.0,60,0.00,,,0.00,weatherlink.com 1.10,2013-03-02 18:38:00,
2013-03-02 13:53:00,37.9,26.0,29.73,North,359,9.0,9.0,63,0.00,,,0.00,weatherlink.com 1.10,2013-03-02 18:53:00,
2013-03-02 14:08:00,37.8,26.0,29.73,North,353,2.0,6.0,63,0.00,,,0.00,weatherlink.com 1.10,2013-03-02 19:08:00,
2013-03-02 14:23:00,37.6,26.0,29.73,NNE,30,2.0,9.0,63,0.00,,,0.00,weatherlink.com 1.10,2013-03-02 19:23:00,
2013-03-02 14:38:00,37.7,26.0,29.72,North,6,2.0,7.0,64,0.00,,,0.00,weatherlink.com 1.10,2013-03-02 19:38:00,
2013-03-02 14:53:00,38.0,26.0,29.72,NE,43,5.0,6.0,63,0.00,,,0.00,weatherlink.com 1.10,2013-03-02 19:53:00,
2013-03-02 15:08:00,38.0,26.0,29.72,NW,308,0.0,5.0,63,0.00,,,0.00,weatherlink.com 1.10,2013-03-02 20:08:00,
2013-03-02 15:23:00,38.0,25.0,29.71,WNW,283,2.0,8.0,60,0.00,,,0.00,weatherlink.com 1.10,2013-03-02 20:23:00,
2013-03-02 15:38:00,38.3,26.0,29.72,NNE,15,4.0,6.0,61,0.00,,,0.00,weatherlink.com 1.10,2013-03-02 20:38:00,
2013-03-02 15:53:00,37.5,25.0,29.72,NNW,333,3.0,7.0,62,0.00,,,0.00,weatherlink.com 1.10,2013-03-02 20:53:00,
2013-03-02 16:08:00,37.0,25.0,29.72,NNE,24,5.0,9.0,62,0.00,,,0.00,weatherlink.com 1.10,2013-03-02 21:08:00,
2013-03-02 16:23:00,36.6,25.0,29.72,North,4,3.0,8.0,63,0.00,,,0.00,weatherlink.com 1.10,2013-03-02 21:23:00,
2013-03-02 16:38:00,36.5,25.0,29.72,North,5,3.0,8.0,63,0.00,,,0.00,weatherlink.com 1.10,2013-03-02 21:38:00,
2013-03-02 16:53:00,36.7,24.0,29.72,NNE,22,5.0,6.0,61,0.00,,,0.00,weatherlink.com 1.10,2013-03-02 21:53:00,
2013-03-02 17:08:00,36.7,24.0,29.73,North,349,4.0,6.0,61,0.00,,,0.00,weatherlink.com 1.10,2013-03-02 22:08:00,
2013-03-02 17:23:00,36.4,24.0,29.73,SW,222,0.0,5.0,62,0.00,,,0.00,weatherlink.com 1.10,2013-03-02 22:23:00,
2013-03-02 17:38:00,36.2,24.0,29.73,North,358,3.0,5.0,62,0.00,,,0.00,weatherlink.com 1.10,2013-03-02 22:38:00,
2013-03-02 17:53:00,35.8,24.0,29.73,NNE,30,5.0,5.0,63,0.00,,,0.00,weatherlink.com 1.10,2013-03-02 22:53:00,
2013-03-02 18:08:00,35.5,24.0,29.74,NW,323,1.0,4.0,64,0.00,,,0.00,weatherlink.com 1.10,2013-03-02 23:08:00,
2013-03-02 18:23:00,35.1,24.0,29.74,WSW,257,0.0,9.0,65,0.00,,,0.00,weatherlink.com 1.10,2013-03-02 23:23:00,
2013-03-02 18:38:00,34.9,25.0,29.75,NNE,20,4.0,7.0,66,0.00,,,0.00,weatherlink.com 1.10,2013-03-02 23:38:00,
2013-03-02 18:53:00,34.7,24.0,29.76,NNE,16,9.0,9.0,66,0.00,,,0.00,weatherlink.com 1.10,2013-03-02 23:53:00,
2013-03-02 19:08:00,34.2,25.0,29.76,NNW,338,1.0,9.0,68,0.00,,,0.00,weatherlink.com 1.10,2013-03-03 00:08:00,
2013-03-02 19:23:00,33.8,25.0,29.76,NNW,345,5.0,6.0,69,0.00,,,0.00,weatherlink.com 1.10,2013-03-03 00:23:00,
2013-03-02 19:38:00,33.2,25.0,29.76,NE,44,3.0,9.0,73,0.00,,,0.00,weatherlink.com 1.10,2013-03-03 00:38:00,
2013-03-02 19:53:00,32.8,25.0,29.76,NE,49,4.0,5.0,74,0.00,,,0.00,weatherlink.com 1.10,2013-03-03 00:53:00,
2013-03-02 20:08:00,32.9,25.0,29.76,NNE,33,2.0,4.0,72,0.00,,,0.00,weatherlink.com 1.10,2013-03-03 01:08:00,
2013-03-02 20:23:00,33.0,24.0,29.76,NNE,26,2.0,7.0,70,0.00,,,0.00,weatherlink.com 1.10,2013-03-03 01:23:00,
2013-03-02 20:38:00,32.3,26.0,29.76,North,349,1.0,7.0,76,0.00,,,0.00,weatherlink.com 1.10,2013-03-03 01:38:00,
2013-03-02 20:53:00,31.2,27.0,29.77,North,4,0.0,3.0,83,0.00,,,0.00,weatherlink.com 1.10,2013-03-03 01:53:00,
2013-03-02 21:08:00,30.6,26.0,29.77,NNW,333,1.0,6.0,84,0.00,,,0.00,weatherlink.com 1.10,2013-03-03 02:08:00,
2013-03-02 21:23:00,30.4,26.0,29.77,West,280,0.0,5.0,84,0.00,,,0.00,weatherlink.com 1.10,2013-03-03 02:23:00,
2013-03-02 21:38:00,30.2,26.0,29.76,North,11,3.0,5.0,85,0.00,,,0.00,weatherlink.com 1.10,2013-03-03 02:38:00,
2013-03-02 21:54:00,30.1,26.0,29.76,WSW,252,1.0,3.0,86,0.00,,,0.00,weatherlink.com 1.10,2013-03-03 02:54:00,
2013-03-02 22:09:00,30.0,26.0,29.76,NNW,329,2.0,6.0,86,0.00,,,0.00,weatherlink.com 1.10,2013-03-03 03:09:00,
2013-03-02 22:24:00,29.6,26.0,29.75,NNE,23,0.0,3.0,86,0.00,,,0.00,weatherlink.com 1.10,2013-03-03 03:24:00,
2013-03-02 22:39:00,29.7,25.0,29.75,North,6,1.0,6.0,84,0.00,,,0.00,weatherlink.com 1.10,2013-03-03 03:39:00,
2013-03-02 22:54:00,29.6,25.0,29.75,NNW,332,2.0,5.0,84,0.00,,,0.00,weatherlink.com 1.10,2013-03-03 03:54:00,
2013-03-02 23:09:00,29.6,25.0,29.75,North,356,1.0,8.0,82,0.00,,,0.00,weatherlink.com 1.10,2013-03-03 04:09:00,
2013-03-02 23:24:00,29.7,25.0,29.75,NNE,15,3.0,5.0,81,0.00,,,0.00,weatherlink.com 1.10,2013-03-03 04:24:00,
2013-03-02 23:39:00,29.8,24.0,29.74,North,6,4.0,8.0,78,0.00,,,0.00,weatherlink.com 1.10,2013-03-03 04:39:00,
2013-03-02 23:54:00,29.8,23.0,29.74,NNE,30,7.0,9.0,77,0.00,,,0.00,weatherlink.com 1.10,2013-03-03 04:54:00,